Visit the IPS Meteostar Home Page IPSM China Lake Naval Air Facility FORECAST

China Lake, California

47

48

47

53

54

54

54

62

44
44
26
26
34
34
34
34

3 miles away at China Lake Naval Air Facility 7:56 GMT

Weather:

 Clear 

Wind:

WSW 28 Gusting to 39 mph

Temperature:

47 ° F

Pressure:

29.65

Dew Point:

23 ° F

Relative Humidity:

36

Feels Like:

38 ° F

Visibility:

10 miles


Aviation Observations:

KNID 190756Z AUTO 25024G34KT 10SM CLR 08/M05 A2965 RMK AO2 PKWND 26036/0734 SLP034 T00831050 402170039 =

National Weather Service Forecast:
Indian Wells Valley

indian wells valley-
1200 AM PST MON FEB 19 2018 ...wind advisory in effect until 4 pm pst this afternoon...

TODAY

Sunny. Areas of blowing dust through the day. Windy, cooler. Highs 43 to 53. West winds 20 to 30 mph with gusts to around 45 mph.

TONIGHT

Mostly clear. Much colder. Lows 21 to 31. West winds 10 to 20 mph.

TUESDAY

Sunny. Highs 42 to 51. Light winds.

TUESDAY NIGHT

Clear. Lows 21 to 31. Light winds.

WEDNESDAY

Mostly sunny. Highs 49 to 56. Light winds in the morning becoming east around 10 mph in the afternoon.

WEDNESDAY NIGHT

Partly cloudy. Lows 28 to 36.

THURSDAY THROUGH SATURDAY NIGHT

Mostly clear. Highs 49 to 59. lows 29 to 39.

SUNDAY

Sunny. Highs 58 to 65.
temperature / precipitation
inyokern 49 23 49 / 0 0 0
ridgecrest 53 25 51 / 0 0 0


Visit the IPS Meteostar Home Page